Terminal Aerodrome Forecast
Issued by NWS

Current Version | Previous Version | Graphics & Text | Print | Product List | Glossary On
Versions: 1 2 3 4 5 6 7 8 9 10 11 12 13 14 15 16 17 18 19 20 21
000
FTUS41 KRNK 290029 AAA
TAFLWB
TAF AMD
KLWB 290029Z 2900/2924 35009G27KT 2SM TSRA BKN009 BKN025CB
     FM290200 00000KT 4SM BR SCT006 OVC060
     FM290800 00000KT 3SM BR OVC015
     FM291400 28007KT P6SM BKN035
     FM291900 28007KT P6SM SCT045=

USA.gov is the U.S. government's official web portal to all federal, state and local government web resources and services.